Time;durP1;ratioP1;P1;durP2;ratioP2;P2;SDS_P1;SDS_P2;PMS_P1;PMS_P2;Temp;Humidity;BMP_temperature;BMP_pressure;BME280_temperature;BME280_humidity;BME280_pressure;Samples;Min_cycle;Max_cycle;Signal;HPM_P1;HPM_P2
2022/05/26 00:01:11;;;;;;;1.67;1.58;;;;;;;20.12;69.75;101593.34;5093577;28;20024;-81
2022/05/26 00:03:39;;;;;;;1.98;1.77;;;;;;;20.12;69.61;101560.63;5093390;28;20035;-81
2022/05/26 00:06:06;;;;;;;1.60;1.50;;;;;;;20.12;69.67;101561.50;5075175;28;20031;-81
2022/05/26 00:08:33;;;;;;;1.85;1.75;;;;;;;20.11;69.61;101567.69;5075615;28;20038;-81
2022/05/26 00:10:59;;;;;;;2.20;1.90;;;;;;;20.08;69.58;101546.38;5093366;28;20024;-81
2022/05/26 00:13:25;;;;;;;2.78;2.13;;;;;;;20.04;69.69;101546.25;5074426;28;20564;-81
2022/05/26 00:15:51;;;;;;;2.10;1.90;;;;;;;20.05;69.75;101564.88;5092736;28;20059;-81
2022/05/26 00:18:17;;;;;;;1.92;1.80;;;;;;;20.03;69.60;101561.28;5075207;28;20056;-81
2022/05/26 00:20:43;;;;;;;2.00;1.90;;;;;;;20.07;69.64;101552.53;5075340;28;20056;-81
2022/05/26 00:23:08;;;;;;;3.33;2.00;;;;;;;20.09;69.66;101553.50;5074903;28;20035;-81
2022/05/26 00:25:34;;;;;;;2.00;1.80;;;;;;;20.09;69.78;101555.25;5093436;28;20032;-81
2022/05/26 00:28:00;;;;;;;2.03;1.92;;;;;;;20.04;69.71;101541.84;5093134;28;20536;-81
2022/05/26 00:30:26;;;;;;;2.85;2.00;;;;;;;20.06;69.50;101548.09;5093152;28;20021;-81
2022/05/26 00:32:51;;;;;;;2.08;1.90;;;;;;;20.06;69.75;101541.88;5093009;28;20060;-81
2022/05/26 00:35:17;;;;;;;2.40;2.20;;;;;;;20.07;69.65;101534.00;5092881;28;20546;-81
2022/05/26 00:37:43;;;;;;;2.40;2.20;;;;;;;20.07;69.67;101526.03;5091293;28;20042;-81
2022/05/26 00:40:09;;;;;;;;;;;;;;;20.09;69.44;101529.63;5071689;28;20036;-81
2022/05/26 00:42:35;;;;;;;2.45;2.25;;;;;;;20.04;69.63;101511.78;5090591;28;20408;-82
2022/05/26 00:45:00;;;;;;;1.90;1.80;;;;;;;20.04;69.72;101510.03;5091511;28;20028;-81
2022/05/26 00:47:28;;;;;;;2.08;1.92;;;;;;;20.04;69.87;101517.97;5072711;28;20043;-81
2022/05/26 00:50:02;;;;;;;2.65;2.28;;;;;;;20.03;69.78;101504.69;5073338;28;20116;-81
2022/05/26 00:52:36;;;;;;;2.13;1.90;;;;;;;20.03;69.66;101508.25;5073207;28;20037;-82
2022/05/26 00:55:06;;;;;;;2.65;2.45;;;;;;;20.03;69.61;101492.34;5070520;28;20047;-81
2022/05/26 00:57:38;;;;;;;2.20;1.98;;;;;;;19.93;69.85;101477.03;5052568;28;20417;-82
2022/05/26 01:00:11;;;;;;;2.45;2.25;;;;;;;20.03;69.81;101499.41;5054211;28;20119;-81
2022/05/26 01:02:41;;;;;;;2.72;2.38;;;;;;;19.99;69.63;101503.72;5055007;28;20042;-81
2022/05/26 01:05:16;;;;;;;2.28;1.80;;;;;;;20.02;69.63;101514.38;5108005;28;20024;-81
2022/05/26 01:07:43;;;;;;;2.40;2.20;;;;;;;20.02;69.65;101516.16;5090818;28;20081;-81
2022/05/26 01:10:10;;;;;;;2.92;2.63;;;;;;;20.02;69.87;101510.84;5107838;28;20032;-81
2022/05/26 01:12:36;;;;;;;2.35;2.15;;;;;;;19.98;69.78;101508.97;5086899;28;20028;-81
2022/05/26 01:15:15;;;;;;;2.20;2.10;;;;;;;19.99;69.69;101505.47;5057206;28;20130;-82
2022/05/26 01:18:02;;;;;;;4.45;2.75;;;;;;;19.95;69.65;101500.94;5085720;28;20035;-82
2022/05/26 01:20:52;;;;;;;2.55;2.20;;;;;;;20.01;69.68;101517.03;5074217;28;20032;-83
2022/05/26 01:23:28;;;;;;;2.33;2.13;;;;;;;20.00;69.55;101524.09;5091958;28;20036;-82
2022/05/26 01:26:13;;;;;;;3.78;2.33;;;;;;;19.98;69.74;101498.34;5073618;28;20138;-83
2022/05/26 01:29:10;;;;;;;2.10;1.92;;;;;;;19.99;69.77;101500.16;5091793;28;20057;-82
2022/05/26 01:31:50;;;;;;;2.92;2.30;;;;;;;19.99;69.76;101484.25;5091588;28;20032;-82
2022/05/26 01:34:34;;;;;;;2.78;2.42;;;;;;;19.98;69.56;101486.03;5091815;28;20028;-83
2022/05/26 01:37:21;;;;;;;2.80;2.30;;;;;;;19.98;69.69;101486.03;5091792;28;20162;-83
2022/05/26 01:39:59;;;;;;;3.22;2.60;;;;;;;19.97;69.61;101475.38;5091782;28;20107;-82
2022/05/26 01:42:36;;;;;;;2.60;2.38;;;;;;;19.97;69.64;101475.38;5091662;28;20028;-82
2022/05/26 01:45:09;;;;;;;4.95;2.55;;;;;;;19.96;69.59;101482.44;5073497;28;20059;-82
2022/05/26 01:47:37;;;;;;;3.80;2.70;;;;;;;19.97;69.79;101489.50;5073561;28;20035;-82
2022/05/26 01:50:14;;;;;;;3.13;2.42;;;;;;;19.92;69.79;101478.78;5073676;28;20028;-83
2022/05/26 01:53:09;;;;;;;3.65;2.33;;;;;;;19.91;69.76;101468.13;5089064;28;20032;-82
2022/05/26 01:55:46;;;;;;;4.03;2.97;;;;;;;19.96;69.60;101486.81;5075223;28;20033;-82
2022/05/26 01:58:32;;;;;;;3.35;2.83;;;;;;;19.96;69.60;101486.81;5083564;28;20408;-83
2022/05/26 02:01:01;;;;;;;3.33;2.63;;;;;;;19.90;69.61;101503.47;5089604;28;20028;-82
2022/05/26 02:03:29;;;;;;;3.15;2.50;;;;;;;19.93;69.71;101515.03;5072599;28;20538;-82
2022/05/26 02:06:10;;;;;;;2.85;2.60;;;;;;;19.92;69.64;101523.84;5086317;28;20032;-82
2022/05/26 02:08:44;;;;;;;5.10;2.63;;;;;;;19.95;69.63;101511.53;5088147;28;20024;-83
2022/05/26 02:11:13;;;;;;;3.05;2.70;;;;;;;19.93;69.58;101503.53;5071171;28;20101;-82
2022/05/26 02:13:48;;;;;;;3.33;2.58;;;;;;;19.79;69.70;101473.09;5071228;28;20043;-83
2022/05/26 02:16:18;;;;;;;3.00;2.70;;;;;;;19.79;69.73;101481.06;5088353;28;20036;-82
2022/05/26 02:18:53;;;;;;;2.78;2.58;;;;;;;19.91;69.58;101498.19;5082042;28;20027;-82
2022/05/26 02:21:29;;;;;;;2.67;2.42;;;;;;;19.84;69.66;101484.75;5062134;28;20481;-82
2022/05/26 02:24:21;;;;;;;5.03;2.90;;;;;;;19.92;69.65;101500.00;5072141;28;20096;-81
2022/05/26 02:26:46;;;;;;;4.22;3.05;;;;;;;19.89;69.55;101499.91;5084270;28;20572;-81
2022/05/26 02:31:57;;;;;;;4.55;2.78;;;;;;;19.90;69.48;101488.47;5073540;28;20043;-82
2022/05/26 02:34:23;;;;;;;3.35;3.05;;;;;;;19.90;69.61;101493.75;5089998;28;20082;-82
2022/05/26 02:36:53;;;;;;;;;;;;;;;19.93;69.49;101496.47;5089581;28;20036;-82
2022/05/26 02:39:19;;;;;;;3.38;2.70;;;;;;;19.83;69.56;101489.16;5076124;28;19916;-82
2022/05/26 02:41:45;;;;;;;3.88;2.88;;;;;;;19.88;69.58;101491.94;5092556;28;20028;-82
2022/05/26 02:44:10;;;;;;;3.35;3.03;;;;;;;19.88;69.49;101487.50;5074378;28;20089;-82
2022/05/26 02:46:50;;;;;;;4.32;3.00;;;;;;;19.88;69.75;101471.59;5093677;28;20046;-82
2022/05/26 02:49:48;;;;;;;3.10;2.80;;;;;;;19.84;69.61;101453.81;5092267;28;20024;-82
2022/05/26 02:52:26;;;;;;;3.00;2.70;;;;;;;19.87;69.61;101463.59;5074576;28;20045;-82
2022/05/26 02:55:10;;;;;;;4.10;3.10;;;;;;;19.87;69.54;101468.91;5092634;28;20085;-82
2022/05/26 02:57:59;;;;;;;3.90;3.10;;;;;;;19.87;69.53;101479.50;5094670;28;20056;-82
2022/05/26 03:00:31;;;;;;;4.38;3.30;;;;;;;19.84;69.68;101464.44;5068411;28;20043;-82
2022/05/26 03:03:05;;;;;;;4.25;3.15;;;;;;;19.85;69.70;101467.97;5070823;28;20028;-82
2022/05/26 03:05:38;;;;;;;5.28;3.42;;;;;;;19.83;69.66;101470.59;5075486;28;20032;-82
2022/05/26 03:08:08;;;;;;;3.33;3.03;;;;;;;19.85;69.61;101478.56;5073620;28;20024;-82
2022/05/26 03:10:34;;;;;;;6.63;3.22;;;;;;;19.85;69.60;101492.72;5074378;28;20064;-82
2022/05/26 03:13:01;;;;;;;3.40;3.10;;;;;;;19.62;69.63;101462.91;5082572;28;20119;-82
2022/05/26 03:15:30;;;;;;;3.67;3.13;;;;;;;19.84;69.75;101503.31;5071962;28;20571;-82
2022/05/26 03:17:58;;;;;;;3.78;3.20;;;;;;;19.85;69.70;101497.13;5089490;28;20035;-81
2022/05/26 03:20:23;;;;;;;4.18;3.25;;;;;;;19.84;69.42;101495.34;5068402;28;20029;-82
2022/05/26 03:22:49;;;;;;;3.75;3.25;;;;;;;19.76;69.60;101492.47;5096373;28;20139;-82
2022/05/26 03:25:15;;;;;;;4.43;3.53;;;;;;;19.79;69.77;101492.56;5092770;28;20032;-82
2022/05/26 03:27:40;;;;;;;3.55;3.25;;;;;;;19.82;69.69;101486.44;5094309;28;20032;-82
2022/05/26 03:30:06;;;;;;;4.03;3.13;;;;;;;19.82;69.71;101486.44;5091241;28;20039;-82
2022/05/26 03:32:32;;;;;;;5.65;3.72;;;;;;;19.82;69.50;101483.81;5072659;28;20036;-82
2022/05/26 03:43:10;;;;;;;4.88;3.70;;;;;;;19.78;69.51;101473.97;5086450;28;20051;-82
2022/05/26 03:45:36;;;;;;;4.22;3.55;;;;;;;19.79;69.56;101479.31;5066315;28;20028;-82
2022/05/26 03:48:03;;;;;;;4.75;3.50;;;;;;;19.80;69.72;101482.88;5076163;28;20032;-81
2022/05/26 03:50:29;;;;;;;5.18;3.97;;;;;;;19.80;69.53;101490.81;5066412;28;20041;-81
2022/05/26 03:52:54;;;;;;;4.88;3.80;;;;;;;19.79;69.49;101497.88;5079319;28;20042;-81
2022/05/26 03:55:21;;;;;;;4.35;3.95;;;;;;;19.79;69.73;101489.00;5089684;28;20031;-82
2022/05/26 03:57:47;;;;;;;7.47;4.10;;;;;;;19.71;69.61;101473.78;5086060;28;20036;-81
2022/05/26 04:00:15;;;;;;;4.30;3.67;;;;;;;19.72;69.55;101480.88;5057071;28;20043;-82
2022/05/26 04:02:40;;;;;;;4.72;3.58;;;;;;;19.79;69.68;101492.56;5091345;28;20032;-81
2022/05/26 04:05:08;;;;;;;4.95;3.80;;;;;;;19.78;69.44;101511.97;5056773;28;20036;-81
2022/05/26 04:07:34;;;;;;;4.13;3.70;;;;;;;19.78;69.57;101508.41;5054771;28;20028;-81
2022/05/26 04:10:02;;;;;;;6.05;4.10;;;;;;;19.76;69.63;101502.19;5068803;28;20466;-82
2022/05/26 04:12:28;;;;;;;4.93;3.58;;;;;;;19.73;69.62;101498.59;5092303;28;20042;-81
2022/05/26 04:14:53;;;;;;;4.22;3.50;;;;;;;19.74;69.77;101499.47;5091537;28;20497;-81
2022/05/26 04:17:19;;;;;;;3.65;3.30;;;;;;;19.70;69.59;101492.28;5091637;28;20028;-82
2022/05/26 04:19:45;;;;;;;3.95;3.30;;;;;;;19.67;69.64;101495.72;5089878;28;20523;-81
2022/05/26 04:22:18;;;;;;;4.45;3.45;;;;;;;19.75;69.51;101497.72;5064329;28;20047;-81
2022/05/26 04:24:46;;;;;;;4.28;3.53;;;;;;;19.74;69.59;101499.47;5090530;28;20042;-81
2022/05/26 04:27:12;;;;;;;3.60;3.22;;;;;;;19.72;69.56;101499.44;5083635;28;20073;-81
2022/05/26 04:29:38;;;;;;;4.72;3.80;;;;;;;19.73;69.66;101509.19;5071301;28;20036;-81
2022/05/26 04:32:04;;;;;;;4.38;3.67;;;;;;;19.73;69.49;101514.50;5069491;28;20028;-81
2022/05/26 04:34:30;;;;;;;5.68;4.20;;;;;;;19.72;69.56;101517.97;5091860;28;20035;-81
2022/05/26 04:36:55;;;;;;;6.25;4.30;;;;;;;19.67;69.61;101511.63;5085939;28;20359;-82
2022/05/26 04:39:21;;;;;;;6.82;4.25;;;;;;;19.72;69.68;101528.56;5086521;28;20414;-82
2022/05/26 04:41:47;;;;;;;6.22;4.32;;;;;;;19.70;69.71;101526.75;5076007;28;20028;-82
2022/05/26 04:44:15;;;;;;;4.03;3.60;;;;;;;19.73;69.56;101533.03;5081301;28;20110;-81
2022/05/26 04:46:41;;;;;;;5.45;3.75;;;;;;;19.71;69.48;101523.25;5072575;28;20028;-82
2022/05/26 04:49:08;;;;;;;3.78;3.03;;;;;;;19.72;69.55;101525.94;5090858;28;20043;-81
2022/05/26 04:51:34;;;;;;;3.20;2.90;;;;;;;19.72;69.70;101539.19;5071249;28;20044;-81
2022/05/26 04:54:01;;;;;;;3.60;3.05;;;;;;;19.72;69.71;101533.00;5084300;28;20098;-81
2022/05/26 04:56:27;;;;;;;3.50;2.67;;;;;;;19.72;69.45;101527.69;5089551;28;20083;-80
2022/05/26 04:58:52;;;;;;;3.03;2.78;;;;;;;19.68;69.53;101533.72;5059956;28;20515;-81
2022/05/26 05:01:19;;;;;;;3.78;2.97;;;;;;;19.70;69.62;101524.09;5089873;28;20036;-81
2022/05/26 05:03:46;;;;;;;3.42;3.13;;;;;;;19.71;69.87;101516.19;5078792;28;20031;-81
2022/05/26 05:06:15;;;;;;;3.08;2.85;;;;;;;19.67;69.63;101502.78;5095944;28;20417;-81
2022/05/26 05:08:42;;;;;;;3.47;2.88;;;;;;;19.71;69.58;101510.91;5059270;28;20710;-81
2022/05/26 05:11:09;;;;;;;3.45;3.15;;;;;;;19.70;69.63;101503.78;5065016;28;20064;-82
2022/05/26 05:13:34;;;;;;;3.55;2.95;;;;;;;19.71;69.68;101499.41;5094279;28;20024;-81
2022/05/26 05:16:11;;;;;;;4.60;3.10;;;;;;;19.71;69.59;101513.53;5070578;28;20067;-80
2022/05/26 05:18:36;;;;;;;3.78;3.20;;;;;;;19.72;69.56;101520.63;5069061;28;20454;-81
2022/05/26 05:21:06;;;;;;;3.33;3.03;;;;;;;19.59;69.76;101512.25;5087806;28;20489;-81
2022/05/26 05:23:33;;;;;;;3.70;2.95;;;;;;;19.71;69.68;101573.59;5066664;28;20024;-82
2022/05/26 05:26:00;;;;;;;9.63;5.38;;;;;;;19.50;71.37;101587.06;5058476;28;20028;-85
2022/05/26 05:28:38;;;;;;;13.02;7.28;;;;;;;19.49;72.88;101575.59;5080064;28;20445;-85
2022/05/26 05:31:07;;;;;;;12.32;8.77;;;;;;;19.35;72.94;101558.38;5073010;28;20024;-84
2022/05/26 05:33:51;;;;;;;15.73;9.35;;;;;;;19.32;73.18;101561.81;5067477;28;20035;-84
2022/05/26 05:36:20;;;;;;;13.50;8.85;;;;;;;19.18;73.02;101517.22;5071067;28;20077;-83
2022/05/26 05:38:46;;;;;;;18.10;9.02;;;;;;;19.25;73.58;101567.75;5090759;28;20115;-83
2022/05/26 05:41:12;;;;;;;9.82;7.22;;;;;;;19.01;72.73;101527.28;5070068;28;20536;-82
2022/05/26 05:43:38;;;;;;;11.88;6.72;;;;;;;19.23;72.82;101542.09;5057529;28;20024;-82
2022/05/26 05:46:06;;;;;;;11.05;6.75;;;;;;;19.46;72.34;101603.72;5080999;28;20477;-83
2022/05/26 05:48:32;;;;;;;9.32;6.65;;;;;;;19.28;72.24;101543.13;5051664;28;20458;-83
2022/05/26 05:50:58;;;;;;;8.15;6.68;;;;;;;19.43;72.50;101604.53;5058900;28;20138;-84
2022/05/26 05:53:24;;;;;;;9.07;6.93;;;;;;;19.47;72.53;101512.78;5075264;28;20479;-83
2022/05/26 05:55:50;;;;;;;7.93;6.65;;;;;;;19.52;71.94;101561.53;5068430;28;20554;-84
2022/05/26 05:58:15;;;;;;;7.35;6.40;;;;;;;19.46;72.60;101580.78;5077912;28;20460;-84
2022/05/26 06:00:42;;;;;;;10.18;6.55;;;;;;;19.44;72.54;101593.06;5111889;28;20058;-84
2022/05/26 06:03:07;;;;;;;;;;;;;;;19.50;72.53;101573.81;5098251;28;20089;-83
2022/05/26 06:05:33;;;;;;;9.43;7.32;;;;;;;19.50;72.43;101574.72;5073545;28;19911;-83
2022/05/26 06:07:59;;;;;;;8.10;6.75;;;;;;;19.39;72.79;101567.28;5067476;28;20107;-83
2022/05/26 06:10:25;;;;;;;10.00;6.95;;;;;;;19.37;72.76;101556.66;5052387;28;20036;-83
2022/05/26 06:12:50;;;;;;;;;;;;;;;19.52;72.53;101562.41;5055899;28;20024;-84
2022/05/26 06:15:16;;;;;;;8.65;5.78;;;;;;;19.48;72.49;101557.88;5075499;28;20050;-82
2022/05/26 06:17:42;;;;;;;8.45;6.28;;;;;;;19.62;72.17;101566.25;5095265;28;20051;-88
2022/05/26 06:20:10;;;;;;;12.43;7.00;;;;;;;19.44;73.09;101547.16;5077533;28;20417;-83
2022/05/26 06:22:37;;;;;;;10.80;6.82;;;;;;;19.63;72.22;101557.44;5095783;28;20024;-83
2022/05/26 06:25:10;;;;;;;8.90;6.30;;;;;;;19.57;72.56;101535.16;5072163;28;20035;-83
2022/05/26 06:30:32;;;;;;;9.77;6.50;;;;;;;19.63;71.69;101552.13;5059581;28;20093;-82
2022/05/26 06:38:36;;;;;;;10.45;7.30;;;;;;;19.61;72.58;101551.19;5059881;28;20055;-83
2022/05/26 06:43:48;;;;;;;9.32;7.00;;;;;;;19.73;71.69;101562.19;5092749;28;20063;-81
2022/05/26 06:46:14;;;;;;;8.07;6.93;;;;;;;19.69;71.64;101544.38;5057155;28;20023;-83
2022/05/26 06:48:43;;;;;;;9.02;7.40;;;;;;;19.65;71.60;101531.88;5085662;28;20033;-84
2022/05/26 06:51:09;;;;;;;9.70;6.97;;;;;;;19.76;71.24;101544.59;5059979;28;20036;-84
2022/05/26 06:53:34;;;;;;;8.93;6.80;;;;;;;19.69;71.65;101533.78;5075296;28;20485;-84
2022/05/26 06:56:01;;;;;;;8.02;6.47;;;;;;;19.76;71.81;101550.78;5094803;28;20489;-83
2022/05/26 06:58:27;;;;;;;8.05;6.25;;;;;;;19.70;71.63;101532.94;5075550;28;20024;-84
2022/05/26 07:00:53;;;;;;;9.73;6.85;;;;;;;19.79;71.55;101556.19;5094597;28;20031;-83
2022/05/26 07:03:18;;;;;;;;;;;;;;;19.81;71.37;101541.22;5071858;28;20519;-83
2022/05/26 07:05:44;;;;;;;11.35;6.57;;;;;;;19.64;71.84;101521.22;5093762;28;19912;-83
2022/05/26 07:08:10;;;;;;;;;;;;;;;19.80;71.87;101535.88;5080861;28;20031;-83
2022/05/26 07:10:37;;;;;;;8.20;6.10;;;;;;;19.59;71.84;101506.97;5095938;28;19911;-83
2022/05/26 07:13:04;;;;;;;9.25;6.25;;;;;;;19.30;71.62;101476.13;5060616;28;20047;-83
2022/05/26 07:15:33;;;;;;;;;;;;;;;19.77;71.79;101559.63;5088666;28;20083;-83
2022/05/26 07:18:13;;;;;;;8.48;6.20;;;;;;;19.71;71.62;101550.66;5094270;28;19916;-84
2022/05/26 07:20:39;;;;;;;7.75;6.03;;;;;;;19.77;71.87;101546.38;5098485;28;20034;-84
2022/05/26 07:23:10;;;;;;;8.57;5.90;;;;;;;19.46;71.52;101496.00;5105069;28;20421;-83
2022/05/26 07:25:51;;;;;;;9.00;6.22;;;;;;;19.67;71.70;101534.59;5082960;28;20032;-84
2022/05/26 07:28:17;;;;;;;7.28;6.20;;;;;;;19.81;71.62;101542.94;5093993;28;20024;-84
2022/05/26 07:30:42;;;;;;;6.70;6.00;;;;;;;19.58;71.62;101508.72;5075805;28;20081;-84
2022/05/26 07:33:08;;;;;;;6.88;5.80;;;;;;;19.82;71.43;101556.25;5092176;28;20036;-84
2022/05/26 07:35:34;;;;;;;8.05;5.97;;;;;;;19.82;71.60;101555.38;5087160;28;20052;-85
2022/05/26 07:43:34;;;;;;;10.02;6.53;;;;;;;19.78;71.59;101548.19;5089390;28;20046;-82
2022/05/26 07:46:00;;;;;;;8.02;6.00;;;;;;;19.79;71.79;101548.22;5075481;28;20058;-83
2022/05/26 07:48:25;;;;;;;8.55;6.35;;;;;;;19.51;71.68;101496.13;5108749;28;20043;-83
2022/05/26 07:50:51;;;;;;;10.02;6.90;;;;;;;19.72;71.92;101531.22;5099658;28;20024;-83
2022/05/26 07:53:17;;;;;;;7.97;6.50;;;;;;;19.86;71.81;101559.91;5072946;28;20478;-82
2022/05/26 07:55:42;;;;;;;9.38;6.68;;;;;;;19.83;72.23;101563.38;5073019;28;20025;-83
2022/05/26 07:58:11;;;;;;;9.50;6.72;;;;;;;19.84;71.85;101561.63;5096889;28;20118;-83
2022/05/26 08:00:38;;;;;;;9.23;7.13;;;;;;;19.85;72.01;101560.75;5076360;28;20446;-83
2022/05/26 08:03:04;;;;;;;10.27;6.55;;;;;;;19.87;72.10;101562.56;5082609;28;20050;-82
2022/05/26 08:05:29;;;;;;;7.63;6.45;;;;;;;19.88;71.82;101561.75;5102635;28;20082;-82
2022/05/26 08:07:55;;;;;;;8.73;6.70;;;;;;;19.88;72.07;101558.19;5075199;28;20024;-82
2022/05/26 08:10:20;;;;;;;11.02;6.80;;;;;;;19.88;71.83;101560.84;5110721;28;20024;-82
2022/05/26 08:12:46;;;;;;;9.25;6.50;;;;;;;19.89;71.68;101560.88;5113685;28;20051;-82
2022/05/26 08:15:12;;;;;;;8.38;6.63;;;;;;;19.91;72.06;101559.16;5113373;28;20467;-82
2022/05/26 08:17:38;;;;;;;9.85;6.35;;;;;;;19.94;71.70;101555.72;5105313;28;20025;-83
2022/05/26 08:20:04;;;;;;;8.27;6.90;;;;;;;19.91;71.89;101555.63;5086831;28;20028;-83
2022/05/26 08:22:30;;;;;;;10.90;7.00;;;;;;;19.92;72.03;101562.72;5094935;28;20085;-82
2022/05/26 08:24:57;;;;;;;11.50;7.50;;;;;;;19.85;71.99;101552.78;5097572;28;20020;-83
2022/05/26 08:27:24;;;;;;;10.65;7.22;;;;;;;19.98;71.70;101564.63;5101282;28;20502;-83
2022/05/26 08:29:51;;;;;;;8.27;6.82;;;;;;;19.87;72.10;101556.38;5101249;28;20379;-84
2022/05/26 08:32:18;;;;;;;8.18;6.90;;;;;;;19.94;71.77;101561.03;5113230;28;20019;-84
2022/05/26 08:34:44;;;;;;;9.40;7.18;;;;;;;19.91;72.12;101559.16;5079145;28;20024;-83
2022/05/26 08:37:20;;;;;;;9.40;7.20;;;;;;;19.98;71.90;101564.63;5072227;28;20024;-84
2022/05/26 08:39:46;;;;;;;10.88;7.38;;;;;;;20.00;71.84;101560.28;5073660;28;20028;-84
2022/05/26 08:42:21;;;;;;;9.95;7.53;;;;;;;19.91;71.89;101560.91;5073068;28;20028;-84
2022/05/26 08:44:48;;;;;;;8.00;6.95;;;;;;;20.00;71.64;101557.63;5071388;28;20019;-82
2022/05/26 08:47:13;;;;;;;;;;;;;;;20.01;71.71;101564.75;5089562;28;20040;-83
2022/05/26 08:49:46;;;;;;;10.77;7.18;;;;;;;19.97;71.62;101557.56;5086278;28;19920;-83
2022/05/26 08:52:18;;;;;;;9.60;7.65;;;;;;;20.00;71.78;101565.59;5064564;28;20032;-83
2022/05/26 08:55:02;;;;;;;9.07;7.15;;;;;;;19.98;71.82;101565.56;5073794;28;20024;-82
2022/05/26 08:57:51;;;;;;;8.55;6.93;;;;;;;20.00;71.70;101563.84;5074130;28;20487;-82
2022/05/26 09:00:20;;;;;;;9.25;7.28;;;;;;;19.99;71.76;101559.38;5054391;28;20107;-82
2022/05/26 09:02:48;;;;;;;9.70;7.32;;;;;;;19.92;71.96;101553.03;5074191;28;20024;-82
2022/05/26 09:05:16;;;;;;;10.05;7.30;;;;;;;20.02;71.90;101571.81;5074553;28;20028;-83
2022/05/26 09:13:39;;;;;;;7.88;6.57;;;;;;;20.00;71.79;101563.84;5077102;28;20104;-81
2022/05/26 09:16:07;;;;;;;9.70;7.53;;;;;;;20.07;71.85;101568.47;5074185;28;20059;-82
2022/05/26 09:18:34;;;;;;;8.00;6.80;;;;;;;20.04;71.91;101576.31;5091991;28;20020;-82
2022/05/26 09:21:13;;;;;;;7.97;6.60;;;;;;;20.09;71.82;101576.47;5073831;28;20047;-82
2022/05/26 09:23:42;;;;;;;8.63;6.72;;;;;;;20.10;71.88;101578.25;5073952;28;20024;-83
2022/05/26 09:26:11;;;;;;;10.85;7.28;;;;;;;20.13;71.85;101570.41;5092082;28;20024;-82
2022/05/26 09:28:49;;;;;;;9.73;7.30;;;;;;;20.16;72.00;101569.56;5074082;28;20043;-82
2022/05/26 09:31:21;;;;;;;9.38;7.00;;;;;;;20.15;72.00;101573.97;5074058;28;20028;-82
2022/05/26 09:34:00;;;;;;;10.43;7.40;;;;;;;20.19;72.09;101580.25;5091839;28;20092;-82
2022/05/26 09:36:29;;;;;;;8.63;7.10;;;;;;;20.10;72.50;101562.34;5057036;28;20409;-82
2022/05/26 09:38:54;;;;;;;10.85;7.63;;;;;;;20.18;72.37;101573.16;5091814;28;20043;-83
2022/05/26 09:41:20;;;;;;;9.40;7.35;;;;;;;20.20;72.41;101569.69;5091765;28;20027;-81
2022/05/26 09:43:54;;;;;;;9.82;7.40;;;;;;;20.21;72.34;101567.94;5091821;28;20036;-83
2022/05/26 09:46:23;;;;;;;10.23;7.60;;;;;;;20.19;72.37;101567.88;5073468;28;20032;-83
2022/05/26 09:48:52;;;;;;;10.98;7.20;;;;;;;20.17;72.56;101556.38;5073761;28;20131;-83
2022/05/26 09:51:24;;;;;;;9.85;7.10;;;;;;;20.13;72.14;101542.13;5073706;28;20031;-83
2022/05/26 09:53:52;;;;;;;10.73;7.60;;;;;;;20.24;72.16;101562.72;5091692;28;20027;-83
2022/05/26 09:56:40;;;;;;;8.13;6.80;;;;;;;20.28;72.32;101554.00;5091627;28;20113;-83
2022/05/26 09:59:23;;;;;;;9.18;7.38;;;;;;;20.29;72.33;101551.38;5073790;28;20035;-84
2022/05/26 10:01:50;;;;;;;8.13;6.95;;;;;;;20.18;72.56;101530.72;5091938;28;20071;-84
2022/05/26 10:04:22;;;;;;;9.02;7.05;;;;;;;20.31;72.58;101557.59;5073662;28;20428;-84
2022/05/26 10:07:06;;;;;;;8.45;7.20;;;;;;;20.34;72.55;101559.47;5091461;28;20504;-84
2022/05/26 10:09:49;;;;;;;8.40;7.10;;;;;;;20.20;72.62;101529.03;5091463;28;20142;-83
2022/05/26 10:12:52;;;;;;;9.25;7.45;;;;;;;20.38;72.44;101569.28;5073641;28;20048;-83
2022/05/26 10:15:47;;;;;;;9.57;7.38;;;;;;;20.38;72.77;101560.44;5091303;28;20040;-83
2022/05/26 10:18:27;;;;;;;10.43;7.25;;;;;;;20.37;72.76;101558.66;5080452;28;20048;-83
2022/05/26 10:21:03;;;;;;;10.68;7.40;;;;;;;20.32;72.71;101543.50;5091403;28;20056;-83
2022/05/26 10:24:02;;;;;;;8.85;6.95;;;;;;;20.24;72.93;101530.91;5091489;28;20629;-83
2022/05/26 10:26:41;;;;;;;9.35;7.32;;;;;;;20.41;72.93;101553.47;5052665;28;20062;-83
2022/05/26 10:29:06;;;;;;;9.48;7.65;;;;;;;20.45;72.80;101550.03;5073339;28;20408;-83
2022/05/26 10:31:56;;;;;;;10.05;7.38;;;;;;;20.47;72.66;101555.38;5091258;28;20032;-82
2022/05/26 10:35:02;;;;;;;9.85;7.07;;;;;;;20.47;72.67;101555.38;5056386;28;20477;-83
2022/05/26 10:37:48;;;;;;;11.52;7.28;;;;;;;20.46;73.06;101551.81;5091287;28;20489;-82
2022/05/26 10:40:44;;;;;;;8.43;7.25;;;;;;;20.45;72.85;101544.72;5090871;28;20032;-82
2022/05/26 10:43:18;;;;;;;8.02;7.22;;;;;;;20.23;72.76;101497.25;5090872;28;20020;-83
2022/05/26 10:45:48;;;;;;;8.73;7.50;;;;;;;20.34;72.63;101515.25;5073414;28;20028;-83
2022/05/26 10:48:37;;;;;;;10.70;7.75;;;;;;;20.55;72.62;101548.50;5073447;28;20031;-84
2022/05/26 10:51:09;;;;;;;11.43;8.18;;;;;;;20.54;73.02;101558.22;5072880;28;20059;-84
2022/05/26 10:53:54;;;;;;;10.57;8.68;;;;;;;20.52;73.22;101557.28;5072767;28;20034;-83
2022/05/26 10:56:42;;;;;;;11.15;8.90;;;;;;;20.58;72.99;101553.03;5072724;28;20032;-83
2022/05/26 10:59:16;;;;;;;10.80;8.77;;;;;;;20.49;73.15;101543.94;5058133;28;20028;-83
2022/05/26 11:01:53;;;;;;;13.07;9.40;;;;;;;20.32;72.93;101511.66;5076810;28;20051;-83
2022/05/26 11:04:43;;;;;;;11.15;9.20;;;;;;;20.62;72.74;101550.50;5094814;28;20024;-83
2022/05/26 11:07:29;;;;;;;11.45;9.77;;;;;;;20.64;72.89;101547.88;5076687;28;20028;-83
2022/05/26 11:09:58;;;;;;;12.57;10.10;;;;;;;20.68;72.67;101558.63;5076536;28;20051;-83
2022/05/26 11:12:33;;;;;;;11.05;9.77;;;;;;;20.64;73.00;101556.75;5076600;28;20024;-83
2022/05/26 11:18:22;;;;;;;14.80;11.35;;;;;;;20.71;73.00;101556.03;5079204;28;20492;-83
2022/05/26 11:20:53;;;;;;;13.70;10.93;;;;;;;20.69;73.11;101547.13;5076329;28;20028;-85
2022/05/26 11:23:20;;;;;;;13.88;11.68;;;;;;;20.68;73.76;101550.66;5076623;28;20024;-83
2022/05/26 11:26:06;;;;;;;14.50;12.00;;;;;;;20.72;74.40;101559.56;5082568;28;20029;-83
2022/05/26 11:28:45;;;;;;;16.27;13.48;;;;;;;20.76;74.70;101565.84;5073330;28;20046;-83
2022/05/26 11:37:25;;;;;;;25.38;19.35;;;;;;;20.89;77.21;101544.06;5059638;28;20047;-83
2022/05/26 11:39:57;;;;;;;31.20;21.33;;;;;;;20.96;79.87;101546.00;5056392;28;20033;-83
2022/05/26 11:42:27;;;;;;;21.23;17.52;;;;;;;20.91;76.71;101545.00;5055699;28;20036;-83
2022/05/26 11:45:12;;;;;;;21.50;16.52;;;;;;;20.82;75.74;101529.75;5073654;28;20479;-83
2022/05/26 11:48:25;;;;;;;18.85;16.67;;;;;;;20.93;75.10;101540.63;5073655;28;20028;-83
2022/05/26 11:51:25;;;;;;;21.65;16.33;;;;;;;20.97;74.52;101529.22;5009698;28;20030;-83
2022/05/26 11:53:51;;;;;;;17.95;15.80;;;;;;;20.87;74.41;101505.94;5072260;28;20020;-83
2022/05/26 11:56:25;;;;;;;21.63;15.98;;;;;;;20.96;74.24;101524.78;5073248;28;20039;-83
2022/05/26 11:59:20;;;;;;;18.92;16.20;;;;;;;20.99;73.99;101522.19;5073312;28;20115;-84
2022/05/26 12:02:14;;;;;;;18.42;15.73;;;;;;;21.02;73.99;101524.91;5073460;28;20570;-84
2022/05/26 12:04:42;;;;;;;20.00;15.82;;;;;;;20.90;73.82;101519.31;5067397;28;20131;-84
2022/05/26 12:07:21;;;;;;;18.48;16.15;;;;;;;21.01;73.76;101528.41;5055404;28;20020;-83
2022/05/26 12:09:49;;;;;;;19.63;16.20;;;;;;;21.02;73.72;101531.97;5073145;28;20039;-83
2022/05/26 12:12:21;;;;;;;18.90;15.68;;;;;;;21.02;73.63;101534.63;5054684;28;20030;-83
2022/05/26 12:14:46;;;;;;;21.08;15.40;;;;;;;21.02;73.75;101535.53;5072280;28;20055;-83
2022/05/26 12:17:30;;;;;;;19.70;15.52;;;;;;;21.02;73.44;101524.91;5073252;28;20107;-82
2022/05/26 12:20:23;;;;;;;18.15;15.50;;;;;;;21.01;73.71;101533.72;5073246;28;20405;-84
2022/05/26 12:22:52;;;;;;;18.13;15.82;;;;;;;21.02;73.69;101529.31;5063189;28;20040;-84
2022/05/26 12:25:30;;;;;;;20.38;15.52;;;;;;;21.04;73.50;101522.28;5073235;28;20028;-84
2022/05/26 12:27:57;;;;;;;16.27;14.57;;;;;;;21.06;73.40;101512.59;5072998;28;20024;-84